Time;durP1;ratioP1;P1;durP2;ratioP2;P2;SDS_P1;SDS_P2;PMS_P1;PMS_P2;Temp;Humidity;BMP_temperature;BMP_pressure;BME280_temperature;BME280_humidity;BME280_pressure;Samples;Min_cycle;Max_cycle;Signal;HPM_P1;HPM_P2
2021/10/28 00:14:01;;;;;;;6.55;3.25;;;5.50;91.00;;;;;;6304736;28;20048;-81
2021/10/28 00:17:10;;;;;;;4.43;2.45;;;5.50;91.00;;;;;;6304650;28;20079;-81
2021/10/28 00:20:11;;;;;;;5.45;2.70;;;5.50;91.00;;;;;;6305040;28;20108;-81
2021/10/28 00:23:13;;;;;;;7.03;1.90;;;5.40;91.10;;;;;;6304959;28;20049;-82
2021/10/28 00:26:15;;;;;;;8.57;2.53;;;5.40;91.10;;;;;;6303282;28;20079;-81
2021/10/28 00:29:21;;;;;;;3.03;2.15;;;5.30;91.00;;;;;;6301635;28;20722;-81
2021/10/28 00:32:24;;;;;;;7.80;2.10;;;5.30;91.00;;;;;;6297293;28;20056;-81
2021/10/28 00:35:26;;;;;;;4.25;2.47;;;5.20;91.10;;;;;;6303708;28;20048;-82
2021/10/28 00:38:28;;;;;;;16.27;3.35;;;5.20;91.10;;;;;;6303444;28;20079;-81
2021/10/28 00:41:30;;;;;;;4.43;2.65;;;5.20;91.10;;;;;;6304019;28;20040;-82
2021/10/28 00:44:32;;;;;;;6.28;2.38;;;5.10;91.00;;;;;;6287317;28;20079;-82
2021/10/28 00:47:38;;;;;;;5.97;2.55;;;5.10;91.10;;;;;;6280015;28;20048;-81
2021/10/28 00:50:39;;;;;;;8.52;4.72;;;5.10;91.10;;;;;;6278565;28;20413;-81
2021/10/28 00:53:43;;;;;;;5.75;2.55;;;5.00;91.00;;;;;;6278686;28;20053;-81
2021/10/28 00:56:45;;;;;;;4.80;2.30;;;4.90;91.00;;;;;;6286021;28;20049;-83
2021/10/28 00:59:47;;;;;;;8.50;2.47;;;5.00;91.10;;;;;;6286178;28;20425;-83
2021/10/28 01:02:51;;;;;;;6.55;2.33;;;4.90;91.00;;;;;;6285570;28;20041;-83
2021/10/28 01:05:53;;;;;;;10.85;3.08;;;4.90;91.00;;;;;;6283653;28;20051;-82
2021/10/28 01:08:55;;;;;;;4.18;2.25;;;4.80;90.90;;;;;;6281787;28;20048;-82
2021/10/28 01:11:57;;;;;;;3.33;1.98;;;4.70;90.80;;;;;;6284324;28;20049;-82
2021/10/28 01:14:59;;;;;;;6.43;2.90;;;4.70;90.90;;;;;;6283527;28;20064;-83
2021/10/28 01:18:07;;;;;;;5.40;2.83;;;4.60;90.90;;;;;;6281952;28;20063;-81
2021/10/28 01:21:10;;;;;;;4.93;2.75;;;4.50;90.90;;;;;;6291972;28;20055;-83
2021/10/28 01:24:12;;;;;;;6.90;2.53;;;4.50;91.00;;;;;;6304054;28;20170;-83
2021/10/28 01:27:14;;;;;;;6.45;2.60;;;4.50;91.10;;;;;;6282755;28;20084;-83
2021/10/28 01:30:16;;;;;;;6.85;3.03;;;4.50;91.00;;;;;;6296741;28;20049;-83
2021/10/28 01:33:18;;;;;;;4.55;2.38;;;4.50;91.00;;;;;;6314595;22;20072;-84
2021/10/28 01:36:22;;;;;;;6.45;2.25;;;4.50;91.00;;;;;;6276130;28;20048;-83
2021/10/28 01:39:24;;;;;;;;;;;4.40;90.90;;;;;;6275765;28;20052;-82
2021/10/28 01:42:25;;;;;;;;;;;4.40;90.90;;;;;;6276117;28;19921;-83
2021/10/28 01:45:27;;;;;;;;;;;4.30;90.70;;;;;;6288701;28;19921;-83
2021/10/28 01:48:29;;;;;;;;;;;4.20;90.70;;;;;;6297163;28;19921;-83
2021/10/28 01:51:32;;;;;;;4.82;2.50;;;4.20;90.80;;;;;;6275311;28;21096;-83
2021/10/28 01:54:34;;;;;;;4.20;2.13;;;4.10;91.30;;;;;;6275658;28;20528;-83
2021/10/28 01:57:36;;;;;;;5.47;2.25;;;4.20;91.50;;;;;;6275576;28;20187;-83
2021/10/28 02:00:38;;;;;;;3.50;2.22;;;4.20;91.40;;;;;;6277228;28;20570;-83
2021/10/28 02:03:40;;;;;;;5.35;2.35;;;4.20;91.30;;;;;;6275640;28;20044;-83
2021/10/28 02:06:43;;;;;;;8.40;2.50;;;4.20;91.30;;;;;;6272680;28;20134;-83
2021/10/28 02:09:45;;;;;;;7.35;2.33;;;4.20;91.20;;;;;;6279134;28;20041;-84
2021/10/28 02:12:49;;;;;;;4.32;2.28;;;4.10;91.10;;;;;;6281540;28;20052;-83
2021/10/28 02:15:51;;;;;;;3.75;2.45;;;4.10;91.10;;;;;;6276219;28;20570;-82
2021/10/28 02:18:53;;;;;;;3.90;2.10;;;4.10;91.10;;;;;;6274605;28;20051;-83
2021/10/28 02:21:56;;;;;;;6.18;2.53;;;4.10;91.10;;;;;;6276383;28;20090;-83
2021/10/28 02:24:58;;;;;;;9.85;2.53;;;4.10;91.10;;;;;;6275942;28;20055;-85
2021/10/28 02:28:00;;;;;;;10.65;2.15;;;4.20;91.10;;;;;;6275778;28;20126;-84
2021/10/28 02:31:02;;;;;;;4.38;2.10;;;4.00;91.00;;;;;;6274590;28;20052;-83
2021/10/28 02:34:04;;;;;;;2.72;1.77;;;4.00;91.00;;;;;;6274981;28;20191;-83
2021/10/28 02:37:07;;;;;;;3.75;2.10;;;3.90;91.10;;;;;;6274975;28;20047;-82
2021/10/28 02:40:10;;;;;;;6.55;3.22;;;3.90;91.10;;;;;;6274768;28;20049;-83
2021/10/28 02:43:12;;;;;;;7.70;1.83;;;3.80;91.10;;;;;;6275724;28;20085;-84
2021/10/28 02:46:14;;;;;;;6.15;2.55;;;3.80;91.10;;;;;;6274903;28;20095;-82
2021/10/28 02:49:16;;;;;;;6.25;2.25;;;3.70;91.10;;;;;;6274477;28;20041;-84
2021/10/28 02:52:19;;;;;;;3.53;1.88;;;3.70;91.20;;;;;;6274351;28;20057;-84
2021/10/28 02:55:21;;;;;;;3.50;2.22;;;3.70;91.30;;;;;;6275414;28;20040;-83
2021/10/28 02:58:23;;;;;;;3.58;2.17;;;3.60;91.20;;;;;;6278163;28;20103;-83
2021/10/28 03:01:24;;;;;;;5.03;2.40;;;3.60;91.20;;;;;;6275305;28;20041;-83
2021/10/28 03:04:26;;;;;;;3.75;2.00;;;3.60;91.20;;;;;;6273175;28;20048;-83
2021/10/28 03:07:31;;;;;;;7.97;2.33;;;3.60;91.10;;;;;;6273398;28;20066;-84
2021/10/28 03:10:33;;;;;;;5.57;2.65;;;3.60;91.10;;;;;;6273025;28;20560;-83
2021/10/28 03:13:37;;;;;;;5.63;2.65;;;3.50;91.10;;;;;;6273658;28;20057;-83
2021/10/28 03:16:47;;;;;;;7.55;2.33;;;3.50;91.10;;;;;;6273220;28;20052;-83
2021/10/28 03:20:09;;;;;;;9.77;2.30;;;3.40;91.10;;;;;;6274626;28;20136;-82
2021/10/28 03:26:31;;;;;;;4.70;2.47;;;3.40;91.10;;;;;;6273452;28;20052;-83
2021/10/28 03:29:33;;;;;;;4.97;2.15;;;3.40;91.20;;;;;;6272383;28;20091;-83
2021/10/28 03:32:35;;;;;;;4.82;1.65;;;3.40;91.10;;;;;;6256753;28;20052;-86
2021/10/28 03:35:37;;;;;;;5.88;2.30;;;3.30;91.00;;;;;;6253179;28;20049;-84
2021/10/28 03:38:51;;;;;;;6.80;2.03;;;3.20;91.10;;;;;;6250372;28;20057;-83
2021/10/28 03:42:20;;;;;;;10.73;2.83;;;3.20;91.10;;;;;;6248176;28;20056;-82
2021/10/28 03:48:59;;;;;;;3.15;2.03;;;3.30;91.20;;;;;;6235097;28;20514;-81
2021/10/28 03:55:56;;;;;;;10.57;2.88;;;3.20;91.20;;;;;;6247990;28;20128;-82
2021/10/28 04:06:28;;;;;;;4.40;2.20;;;3.10;91.20;;;;;;6197531;28;20588;-84
2021/10/28 04:16:58;;;;;;;10.93;4.63;;;3.00;91.20;;;;;;6219588;28;20079;-83
2021/10/28 04:20:32;;;;;;;17.10;3.72;;;3.00;91.20;;;;;;6223796;28;20669;-82
2021/10/28 04:30:26;;;;;;;5.10;2.78;;;3.20;91.50;;;;;;6251721;28;20204;-83
2021/10/28 04:33:28;;;;;;;6.20;2.95;;;3.30;91.40;;;;;;6264462;28;20045;-82
2021/10/28 04:36:31;;;;;;;11.10;4.55;;;3.30;91.50;;;;;;6277753;28;20142;-82
2021/10/28 04:39:33;;;;;;;7.57;4.63;;;3.60;92.20;;;;;;6276910;28;20433;-82
2021/10/28 04:42:35;;;;;;;12.77;3.60;;;3.70;91.70;;;;;;6276066;28;20538;-82
2021/10/28 04:45:38;;;;;;;4.55;3.03;;;3.80;91.70;;;;;;6277251;28;20048;-82
2021/10/28 04:48:40;;;;;;;9.30;3.33;;;3.90;91.70;;;;;;6275639;28;20420;-82
2021/10/28 04:51:42;;;;;;;36.60;4.38;;;4.00;91.70;;;;;;6276976;28;20067;-83
2021/10/28 04:54:44;;;;;;;8.60;3.70;;;4.00;91.70;;;;;;6276193;28;20044;-84
2021/10/28 04:57:46;;;;;;;5.57;3.40;;;4.10;91.60;;;;;;6276499;28;20045;-83
2021/10/28 05:00:49;;;;;;;5.95;3.17;;;4.20;91.70;;;;;;6275929;28;20514;-83
2021/10/28 05:03:51;;;;;;;7.65;2.80;;;4.30;91.70;;;;;;6277066;28;20078;-83
2021/10/28 05:06:52;;;;;;;11.70;4.18;;;4.40;91.70;;;;;;6275658;28;20051;-82
2021/10/28 05:09:54;;;;;;;7.00;3.22;;;4.50;91.60;;;;;;6275558;28;20072;-82
2021/10/28 05:12:56;;;;;;;5.18;2.58;;;4.60;91.60;;;;;;6276345;28;20641;-84
2021/10/28 05:15:59;;;;;;;13.60;3.20;;;4.60;91.60;;;;;;6276738;28;20055;-84
2021/10/28 05:19:02;;;;;;;4.68;3.13;;;4.70;91.50;;;;;;6277141;28;20490;-84
2021/10/28 05:22:05;;;;;;;4.88;2.65;;;4.80;91.50;;;;;;6278060;28;20033;-84
2021/10/28 05:25:08;;;;;;;7.55;3.00;;;4.80;91.50;;;;;;6276647;28;20055;-84
2021/10/28 05:28:10;;;;;;;7.85;3.90;;;4.90;91.70;;;;;;6277314;28;20132;-84
2021/10/28 05:31:13;;;;;;;11.75;3.72;;;5.10;91.70;;;;;;6280387;28;20497;-82
2021/10/28 05:34:15;;;;;;;10.82;3.47;;;5.10;91.70;;;;;;6263628;28;20122;-82
2021/10/28 05:37:17;;;;;;;22.92;4.88;;;5.30;91.60;;;;;;6250845;28;20067;-82
2021/10/28 05:40:19;;;;;;;7.88;3.63;;;5.30;91.60;;;;;;6250830;28;20053;-82
2021/10/28 05:43:21;;;;;;;15.95;4.95;;;5.40;91.60;;;;;;6250422;28;20154;-81
2021/10/28 05:46:24;;;;;;;20.98;4.95;;;5.50;91.70;;;;;;6249771;28;20049;-82
2021/10/28 05:49:28;;;;;;;22.67;5.03;;;5.50;91.80;;;;;;6249708;28;20056;-82
2021/10/28 05:52:30;;;;;;;15.50;5.05;;;5.60;91.80;;;;;;6250124;28;20044;-81
2021/10/28 05:55:32;;;;;;;44.70;6.43;;;5.70;91.80;;;;;;6250946;28;20049;-82
2021/10/28 05:58:33;;;;;;;25.00;5.20;;;5.80;91.80;;;;;;6249982;28;20136;-86
2021/10/28 06:01:36;;;;;;;14.95;6.10;;;5.90;91.80;;;;;;6249827;28;20065;-83
2021/10/28 06:04:38;;;;;;;24.50;6.97;;;5.90;91.80;;;;;;6249703;28;20124;-83
2021/10/28 06:07:42;;;;;;;38.22;7.22;;;5.90;91.80;;;;;;6249914;28;20060;-82
2021/10/28 06:10:43;;;;;;;28.70;6.05;;;5.90;91.80;;;;;;6249122;28;20052;-82
2021/10/28 06:13:47;;;;;;;26.83;4.80;;;6.00;91.90;;;;;;6249616;28;20121;-81
2021/10/28 06:16:53;;;;;;;41.97;7.85;;;6.00;91.90;;;;;;6250046;28;20050;-83
2021/10/28 06:19:55;;;;;;;26.80;6.00;;;6.10;92.00;;;;;;6250104;28;20411;-82
2021/10/28 06:22:57;;;;;;;20.98;6.70;;;6.10;92.00;;;;;;6249142;28;20436;-82
2021/10/28 06:25:59;;;;;;;26.77;8.43;;;6.20;92.00;;;;;;6249125;28;20045;-83
2021/10/28 06:29:00;;;;;;;24.17;6.35;;;6.20;92.00;;;;;;6249131;28;20076;-82
2021/10/28 06:32:04;;;;;;;24.35;5.07;;;6.20;92.00;;;;;;6249629;28;20050;-83
2021/10/28 06:35:06;;;;;;;33.53;6.97;;;6.30;92.10;;;;;;6264705;28;20049;-83
2021/10/28 06:38:08;;;;;;;35.63;7.07;;;6.30;92.10;;;;;;6272369;28;20044;-81
2021/10/28 06:41:10;;;;;;;43.13;7.10;;;6.40;92.20;;;;;;6300151;28;20060;-84
2021/10/28 06:44:12;;;;;;;29.02;6.18;;;6.50;92.20;;;;;;6279781;28;20126;-85
2021/10/28 06:47:15;;;;;;;36.78;6.65;;;6.50;92.20;;;;;;6300543;28;20430;-84
2021/10/28 06:50:19;;;;;;;81.00;10.25;;;6.60;92.20;;;;;;6298282;28;20052;-83
2021/10/28 06:53:23;;;;;;;25.55;5.90;;;6.60;92.20;;;;;;6297936;28;20045;-84
2021/10/28 07:03:01;;;;;;;29.05;7.00;;;6.80;92.60;;;;;;6298066;28;20044;-82
2021/10/28 07:06:08;;;;;;;33.08;7.57;;;6.90;92.40;;;;;;6298653;28;20052;-83
2021/10/28 07:09:19;;;;;;;26.92;5.90;;;6.90;92.40;;;;;;6298508;28;20401;-85
2021/10/28 07:12:25;;;;;;;29.95;6.78;;;6.90;92.30;;;;;;6284582;28;20051;-86
2021/10/28 07:15:31;;;;;;;33.47;6.55;;;6.90;92.30;;;;;;6298749;28;20045;-83
2021/10/28 07:18:44;;;;;;;47.20;9.52;;;7.00;92.40;;;;;;6298152;28;20047;-85
2021/10/28 07:22:10;;;;;;;49.72;7.93;;;7.00;92.40;;;;;;6300002;28;20045;-85
2021/10/28 07:29:00;;;;;;;44.58;8.73;;;7.20;92.50;;;;;;6299535;28;20091;-84
2021/10/28 07:32:26;;;;;;;62.17;11.18;;;7.40;92.60;;;;;;6298829;28;20513;-85
2021/10/28 07:59:16;;;;;;;26.33;8.75;;;7.90;92.50;;;;;;6275877;28;20052;-86
2021/10/28 08:15:58;;;;;;;22.27;6.60;;;8.40;92.00;;;;;;6302697;28;20048;-86
2021/10/28 08:19:04;;;;;;;20.65;7.25;;;8.50;91.80;;;;;;6278710;28;20105;-86
2021/10/28 08:22:11;;;;;;;27.10;7.70;;;8.50;91.70;;;;;;6276596;28;20059;-86
2021/10/28 08:28:43;;;;;;;14.57;6.72;;;8.70;91.70;;;;;;6279654;28;20079;-86
2021/10/28 08:31:44;;;;;;;16.70;6.82;;;8.80;91.60;;;;;;6281995;28;20053;-85
2021/10/28 08:34:49;;;;;;;13.63;6.05;;;8.90;91.40;;;;;;6281897;28;20068;-84
2021/10/28 08:37:54;;;;;;;13.73;6.32;;;8.90;91.30;;;;;;6273864;28;20041;-85
2021/10/28 08:40:57;;;;;;;15.77;5.90;;;9.00;91.20;;;;;;6270075;28;20047;-86
2021/10/28 08:44:01;;;;;;;13.68;5.72;;;9.10;91.00;;;;;;6282367;28;20049;-86
2021/10/28 08:47:03;;;;;;;13.75;6.65;;;9.20;90.90;;;;;;6280682;28;20071;-85
2021/10/28 08:50:09;;;;;;;14.23;6.13;;;9.30;90.70;;;;;;6283454;28;20112;-85
2021/10/28 08:53:26;;;;;;;17.90;6.82;;;9.30;90.50;;;;;;6292414;28;20041;-86
2021/10/28 08:56:57;;;;;;;17.90;6.82;;;9.40;90.20;;;;;;6275931;28;20092;-87
2021/10/28 09:27:03;;;;;;;14.45;7.18;;;10.00;88.60;;;;;;6273957;28;20041;-84
2021/10/28 09:30:10;;;;;;;13.98;6.75;;;10.00;88.80;;;;;;6273909;28;20057;-84
2021/10/28 09:33:19;;;;;;;15.32;7.38;;;10.00;88.00;;;;;;6273711;28;20052;-84
2021/10/28 09:46:39;;;;;;;15.15;6.57;;;10.10;86.90;;;;;;6253877;28;20124;-84
2021/10/28 09:50:03;;;;;;;;;;;10.20;86.80;;;;;;6252624;28;20052;-84
2021/10/28 09:53:11;;;;;;;15.57;8.13;;;10.20;86.50;;;;;;6248813;28;19925;-83
2021/10/28 09:59:34;;;;;;;15.55;8.45;;;10.40;85.80;;;;;;6248676;28;20041;-85
2021/10/28 10:02:39;;;;;;;18.55;10.13;;;10.50;85.00;;;;;;6248320;28;20116;-83
2021/10/28 10:05:40;;;;;;;19.10;10.35;;;10.60;84.70;;;;;;6252085;28;20050;-84
2021/10/28 10:08:42;;;;;;;22.30;11.48;;;10.60;84.40;;;;;;6248666;28;20402;-83
2021/10/28 10:11:44;;;;;;;19.92;10.93;;;10.70;84.50;;;;;;6265171;28;20048;-85
2021/10/28 10:14:46;;;;;;;17.75;10.30;;;10.60;83.60;;;;;;6272959;28;20495;-85
2021/10/28 10:17:52;;;;;;;19.30;11.25;;;10.60;83.70;;;;;;6274246;28;20468;-85
2021/10/28 10:21:00;;;;;;;15.55;8.73;;;10.60;84.00;;;;;;6271675;28;20041;-84
2021/10/28 10:24:10;;;;;;;20.23;10.38;;;10.60;83.40;;;;;;6272922;28;20131;-84
2021/10/28 11:06:17;;;;;;;17.70;10.05;;;10.80;84.40;;;;;;6250539;28;20081;-86
2021/10/28 11:20:53;;;;;;;23.35;11.68;;;11.40;83.00;;;;;;6238297;28;20053;-87
2021/10/28 11:24:11;;;;;;;18.50;10.63;;;11.50;82.50;;;;;;6280670;28;20045;-86
2021/10/28 11:31:11;;;;;;;26.60;13.75;;;11.60;81.00;;;;;;6275365;28;20052;-84
2021/10/28 12:01:48;;;;;;;20.48;12.07;;;12.30;78.80;;;;;;6256858;28;20047;-86
2021/10/28 12:45:30;;;;;;;18.10;9.80;;;18.00;64.10;;;;;;6278288;28;20075;-87
2021/10/28 12:52:34;;;;;;;12.90;8.00;;;18.60;61.80;;;;;;6275546;28;20055;-84
2021/10/28 13:03:04;;;;;;;11.60;7.65;;;19.50;58.70;;;;;;6275686;28;20049;-87
2021/10/28 13:37:45;;;;;;;13.07;8.95;;;20.90;53.50;;;;;;6284670;28;20053;-84
2021/10/28 13:49:56;;;;;;;12.02;8.43;;;21.10;52.90;;;;;;6275730;28;20049;-85
2021/10/28 14:00:16;;;;;;;11.18;7.70;;;21.50;51.30;;;;;;6253169;28;20499;-85
2021/10/28 14:30:37;;;;;;;14.27;8.10;;;20.90;52.30;;;;;;6274217;28;20037;-82
2021/10/28 14:37:25;;;;;;;12.98;8.85;;;20.50;53.10;;;;;;6275702;28;20053;-85
2021/10/28 15:30:41;;;;;;;14.38;8.98;;;17.50;61.00;;;;;;6279345;28;20057;-85
2021/10/28 15:34:15;;;;;;;23.10;10.75;;;17.10;62.50;;;;;;6281006;28;20052;-85
2021/10/28 15:37:27;;;;;;;17.85;9.70;;;16.70;63.50;;;;;;6289575;28;20049;-85
2021/10/28 15:40:41;;;;;;;20.48;12.25;;;16.20;63.80;;;;;;6279678;28;20518;-85
2021/10/28 15:57:27;;;;;;;14.73;9.75;;;14.20;69.50;;;;;;6252624;28;20045;-85
2021/10/28 16:23:49;;;;;;;17.83;11.00;;;11.50;77.70;;;;;;6252603;28;20050;-85
2021/10/28 16:26:52;;;;;;;20.58;10.52;;;11.20;78.20;;;;;;6251788;28;20046;-84
2021/10/28 16:30:01;;;;;;;22.50;10.18;;;11.10;78.90;;;;;;6253205;28;20187;-84
2021/10/28 16:33:03;;;;;;;21.85;11.23;;;10.80;79.60;;;;;;6252394;28;20061;-85
2021/10/28 16:36:05;;;;;;;20.95;10.30;;;10.60;80.00;;;;;;6252040;28;20029;-86
2021/10/28 16:39:10;;;;;;;18.58;11.20;;;10.40;80.90;;;;;;6251293;28;20049;-86
2021/10/28 16:42:12;;;;;;;22.55;10.73;;;10.20;81.60;;;;;;6271874;28;20044;-87
2021/10/28 16:45:15;;;;;;;23.50;10.73;;;10.00;81.80;;;;;;6274152;28;20429;-86
2021/10/28 16:48:18;;;;;;;21.23;11.63;;;9.90;82.90;;;;;;6275477;28;20064;-86
2021/10/28 16:51:20;;;;;;;21.88;10.27;;;9.80;82.80;;;;;;6276032;28;20134;-85
2021/10/28 16:54:22;;;;;;;21.70;10.30;;;9.70;83.00;;;;;;6275944;28;20451;-87
2021/10/28 16:57:24;;;;;;;24.63;9.98;;;9.50;83.20;;;;;;6275678;28;20076;-86
2021/10/28 17:00:28;;;;;;;18.98;9.75;;;9.40;83.60;;;;;;6275414;28;20130;-85
2021/10/28 17:03:30;;;;;;;18.52;9.68;;;9.30;83.80;;;;;;6275417;28;20049;-86
2021/10/28 17:06:31;;;;;;;18.60;9.68;;;9.10;84.00;;;;;;6274240;28;20053;-86
2021/10/28 17:09:33;;;;;;;20.23;9.35;;;9.00;84.30;;;;;;6274408;28;20649;-86
2021/10/28 17:12:36;;;;;;;20.92;9.88;;;8.90;84.70;;;;;;6275286;28;20045;-86
2021/10/28 17:15:39;;;;;;;15.75;8.98;;;8.80;85.20;;;;;;6274447;28;20051;-85
2021/10/28 17:18:41;;;;;;;15.30;9.07;;;8.70;85.50;;;;;;6274147;28;20426;-85
2021/10/28 17:21:44;;;;;;;20.85;9.50;;;8.70;85.90;;;;;;6274657;28;20048;-86
2021/10/28 17:24:48;;;;;;;19.02;9.65;;;8.60;86.00;;;;;;6274508;28;20487;-86
2021/10/28 17:27:50;;;;;;;22.10;9.82;;;8.50;86.20;;;;;;6275173;28;20056;-83
2021/10/28 17:30:53;;;;;;;19.83;8.27;;;8.50;86.20;;;;;;6273296;28;20098;-86
2021/10/28 17:33:56;;;;;;;24.95;9.75;;;8.40;86.50;;;;;;6273448;28;20140;-86
2021/10/28 17:36:58;;;;;;;21.08;10.32;;;8.30;86.50;;;;;;6273174;28;20053;-87
2021/10/28 17:39:59;;;;;;;24.50;10.35;;;8.30;86.70;;;;;;6275537;28;20052;-87
2021/10/28 17:43:01;;;;;;;21.67;11.52;;;8.20;86.90;;;;;;6275688;28;20045;-85
2021/10/28 17:46:06;;;;;;;18.58;9.50;;;8.10;87.10;;;;;;6275685;28;20037;-85
2021/10/28 17:49:08;;;;;;;21.45;10.35;;;8.00;87.30;;;;;;6274622;28;20055;-86
2021/10/28 17:52:10;;;;;;;22.80;11.35;;;8.00;87.40;;;;;;6273690;28;20056;-86
2021/10/28 17:55:12;;;;;;;25.25;12.27;;;7.90;87.50;;;;;;6274187;28;20052;-86
2021/10/28 17:58:14;;;;;;;24.55;11.07;;;7.80;87.50;;;;;;6272968;28;20521;-87
2021/10/28 18:01:21;;;;;;;23.17;11.27;;;7.70;87.60;;;;;;6272930;28;20546;-86
2021/10/28 18:04:23;;;;;;;24.00;11.65;;;7.70;88.00;;;;;;6274276;28;20059;-85
2021/10/28 18:07:24;;;;;;;20.10;10.63;;;7.70;88.10;;;;;;6274041;28;20060;-86
2021/10/28 18:10:26;;;;;;;23.35;10.75;;;7.70;88.20;;;;;;6274254;28;20507;-87
2021/10/28 18:13:28;;;;;;;21.15;10.48;;;7.60;88.30;;;;;;6272034;28;20052;-85
2021/10/28 18:16:31;;;;;;;20.85;11.05;;;7.60;88.40;;;;;;6272124;28;20415;-87
2021/10/28 18:19:33;;;;;;;23.13;10.30;;;7.50;88.50;;;;;;6274010;28;20045;-85
2021/10/28 18:22:36;;;;;;;23.98;10.82;;;7.50;88.60;;;;;;6273564;28;20174;-87
2021/10/28 18:25:38;;;;;;;25.58;12.50;;;7.50;88.80;;;;;;6273347;28;20127;-85
2021/10/28 18:28:40;;;;;;;26.27;11.85;;;7.40;89.30;;;;;;6273866;28;20155;-87
2021/10/28 18:31:44;;;;;;;23.40;11.02;;;7.30;88.70;;;;;;6273549;28;20131;-85
2021/10/28 18:34:47;;;;;;;22.08;10.95;;;7.20;88.80;;;;;;6271399;28;20041;-87
2021/10/28 18:37:49;;;;;;;24.50;12.52;;;7.20;89.00;;;;;;6272093;28;20049;-87
2021/10/28 18:40:51;;;;;;;18.25;9.57;;;7.10;89.00;;;;;;6273095;28;20132;-86
2021/10/28 18:43:55;;;;;;;23.77;11.65;;;7.10;89.10;;;;;;6274040;28;20045;-83
2021/10/28 18:46:58;;;;;;;25.27;12.23;;;7.00;89.10;;;;;;6265122;28;20045;-86
2021/10/28 18:50:00;;;;;;;23.50;10.75;;;7.00;89.40;;;;;;6247000;28;20593;-85
2021/10/28 18:53:02;;;;;;;26.38;11.50;;;6.90;89.40;;;;;;6246754;28;20068;-85
2021/10/28 18:56:04;;;;;;;23.45;10.90;;;6.90;89.50;;;;;;6251033;28;20049;-87
2021/10/28 18:59:06;;;;;;;25.08;12.65;;;6.80;89.60;;;;;;6256716;28;20135;-85
2021/10/28 19:02:10;;;;;;;28.10;13.40;;;6.80;89.70;;;;;;6261067;28;20061;-87
2021/10/28 19:05:11;;;;;;;26.25;12.80;;;6.80;89.90;;;;;;6254297;28;20037;-85
2021/10/28 19:08:15;;;;;;;29.17;12.77;;;6.80;90.00;;;;;;6250427;28;20100;-87
2021/10/28 19:11:18;;;;;;;22.98;12.38;;;6.70;90.00;;;;;;6263566;28;20045;-85
2021/10/28 19:14:20;;;;;;;26.20;12.02;;;6.70;90.00;;;;;;6271693;28;20056;-85
2021/10/28 19:17:23;;;;;;;24.30;12.48;;;6.60;90.00;;;;;;6274173;28;20045;-86
2021/10/28 19:20:26;;;;;;;24.20;12.23;;;6.60;90.10;;;;;;6272005;28;20060;-87
2021/10/28 19:23:28;;;;;;;49.97;19.40;;;6.50;90.10;;;;;;6272034;28;20404;-86
2021/10/28 19:26:30;;;;;;;30.33;13.65;;;6.50;90.10;;;;;;6271668;28;20496;-87
2021/10/28 19:29:35;;;;;;;38.05;15.82;;;6.50;90.20;;;;;;6272431;28;20053;-86
2021/10/28 19:32:39;;;;;;;34.65;14.07;;;6.40;90.20;;;;;;6271653;28;20040;-86
2021/10/28 19:35:42;;;;;;;29.23;12.73;;;6.40;90.20;;;;;;6274656;28;20041;-83
2021/10/28 19:38:58;;;;;;;25.73;12.70;;;6.40;90.30;;;;;;6271147;28;20059;-85
2021/10/28 19:46:08;;;;;;;29.92;13.75;;;6.30;90.20;;;;;;6236868;28;20049;-87
2021/10/28 19:48:54;;;;;;;35.40;17.02;;;6.20;90.30;;;;;;6272419;28;20545;-86
2021/10/28 19:51:56;;;;;;;42.05;18.75;;;6.20;90.30;;;;;;6278551;28;20605;-86
2021/10/28 19:55:03;;;;;;;36.40;16.85;;;6.20;90.50;;;;;;6278239;28;20610;-83
2021/10/28 19:58:07;;;;;;;30.75;13.75;;;6.20;90.50;;;;;;6281176;28;20045;-84
2021/10/28 20:01:19;;;;;;;32.45;14.20;;;6.20;90.50;;;;;;6281754;28;20075;-84
2021/10/28 20:08:02;;;;;;;32.45;14.73;;;6.10;90.50;;;;;;6263347;28;20091;-86
2021/10/28 20:14:34;;;;;;;30.80;12.65;;;6.00;90.60;;;;;;6277438;28;20472;-86
2021/10/28 20:20:56;;;;;;;28.70;13.38;;;5.90;90.70;;;;;;6287057;28;20262;-85
2021/10/28 20:23:59;;;;;;;31.95;13.90;;;5.90;90.70;;;;;;6295717;28;20041;-85
2021/10/28 20:27:00;;;;;;;32.65;12.43;;;5.80;90.70;;;;;;6285175;28;20148;-85
2021/10/28 20:30:03;;;;;;;30.13;13.93;;;5.80;90.70;;;;;;6284255;28;20113;-85
2021/10/28 20:33:04;;;;;;;30.55;13.23;;;5.60;90.70;;;;;;6281797;28;20625;-84
2021/10/28 20:37:05;;;;;;;28.10;13.63;;;5.60;91.00;;;;;;6279243;28;20069;-88
2021/10/28 20:39:34;;;;;;;27.27;13.18;;;5.60;90.80;;;;;;6276544;28;20048;-88
2021/10/28 20:42:39;;;;;;;37.70;13.57;;;5.60;90.80;;;;;;6278158;28;20049;-85
2021/10/28 20:45:41;;;;;;;30.02;14.20;;;5.50;90.90;;;;;;6280061;28;20067;-86
2021/10/28 20:48:43;;;;;;;29.92;15.20;;;5.60;90.90;;;;;;6277904;28;20466;-85
2021/10/28 20:51:46;;;;;;;29.77;13.35;;;5.50;90.90;;;;;;6278761;28;20127;-84
2021/10/28 20:54:48;;;;;;;29.80;13.23;;;5.50;90.90;;;;;;6282578;28;20053;-85
2021/10/28 20:57:51;;;;;;;26.00;13.45;;;5.50;90.90;;;;;;6280680;28;20484;-86
2021/10/28 21:00:53;;;;;;;35.65;14.18;;;5.40;90.90;;;;;;6281472;28;20055;-85
2021/10/28 21:03:55;;;;;;;26.85;13.27;;;5.50;90.90;;;;;;6281997;28;20049;-86
2021/10/28 21:06:58;;;;;;;31.10;13.45;;;5.30;90.90;;;;;;6276707;28;20052;-86
2021/10/28 21:10:00;;;;;;;31.30;13.32;;;5.40;91.00;;;;;;6275261;28;20049;-87
2021/10/28 21:13:02;;;;;;;41.17;16.60;;;5.50;91.00;;;;;;6277253;28;20056;-87
2021/10/28 21:16:04;;;;;;;47.65;16.00;;;5.50;91.00;;;;;;6277902;28;20423;-83
2021/10/28 21:19:06;;;;;;;40.65;16.42;;;5.60;91.10;;;;;;6276007;28;20135;-85
2021/10/28 21:22:09;;;;;;;34.25;14.85;;;5.70;91.10;;;;;;6278643;28;20045;-87
2021/10/28 21:25:12;;;;;;;42.15;14.48;;;5.80;91.10;;;;;;6276168;28;20041;-86
2021/10/28 21:28:17;;;;;;;42.30;14.68;;;5.90;91.10;;;;;;6276937;28;20660;-87
2021/10/28 21:31:19;;;;;;;45.30;15.77;;;6.00;91.00;;;;;;6277145;28;20144;-85
2021/10/28 21:34:21;;;;;;;59.55;17.90;;;6.00;91.10;;;;;;6277897;28;20044;-84
2021/10/28 21:37:24;;;;;;;62.13;21.08;;;6.10;91.10;;;;;;6278260;28;20064;-84
2021/10/28 21:40:26;;;;;;;68.57;22.33;;;6.10;91.20;;;;;;6278527;28;20052;-86
2021/10/28 21:43:28;;;;;;;64.78;20.17;;;6.20;91.30;;;;;;6268593;28;20052;-86
2021/10/28 21:46:32;;;;;;;79.03;23.27;;;6.30;91.30;;;;;;6277637;28;20098;-86
2021/10/28 21:49:35;;;;;;;72.70;24.85;;;6.50;91.50;;;;;;6292293;28;20041;-85
2021/10/28 21:52:42;;;;;;;76.50;27.23;;;6.60;91.50;;;;;;6296637;28;20692;-86
2021/10/28 21:55:52;;;;;;;100.63;29.48;;;6.70;91.60;;;;;;6277404;28;20049;-84
2021/10/28 21:59:13;;;;;;;66.50;26.23;;;6.80;91.60;;;;;;6281106;28;20148;-86
2021/10/28 22:02:27;;;;;;;91.45;26.95;;;7.00;91.70;;;;;;6288155;28;20432;-85
2021/10/28 22:25:28;;;;;;;75.53;27.27;;;7.60;92.20;;;;;;6310146;28;20044;-85
2021/10/28 22:28:30;;;;;;;90.15;29.77;;;7.70;92.30;;;;;;6302813;28;20055;-86
2021/10/28 22:31:32;;;;;;;110.93;37.03;;;7.70;92.30;;;;;;6300213;28;20383;-84
2021/10/28 22:34:34;;;;;;;126.00;37.80;;;7.80;92.30;;;;;;6300110;28;20417;-85
2021/10/28 22:37:42;;;;;;;84.40;28.40;;;7.90;92.40;;;;;;6300325;28;20237;-84
2021/10/28 22:40:48;;;;;;;76.35;25.42;;;7.90;92.40;;;;;;6299981;28;20117;-84
2021/10/28 22:43:50;;;;;;;96.25;27.63;;;8.00;92.40;;;;;;6300689;28;20055;-85
2021/10/28 22:46:52;;;;;;;70.05;24.52;;;8.00;92.40;;;;;;6301316;28;20045;-84
2021/10/28 22:49:55;;;;;;;116.32;27.95;;;7.90;92.20;;;;;;6300846;28;20052;-84
2021/10/28 22:53:00;;;;;;;87.63;24.90;;;7.90;92.20;;;;;;6300201;28;20170;-84
2021/10/28 22:56:03;;;;;;;96.80;26.70;;;7.80;92.20;;;;;;6302187;28;20385;-84
2021/10/28 22:59:05;;;;;;;103.95;27.05;;;7.80;92.20;;;;;;6300300;28;20052;-84
2021/10/28 23:02:17;;;;;;;84.20;25.50;;;7.80;92.30;;;;;;6299658;28;20057;-84
2021/10/28 23:05:38;;;;;;;84.20;27.83;;;7.80;92.40;;;;;;6299280;28;20049;-83
2021/10/28 23:22:09;;;;;;;102.10;28.67;;;7.90;92.60;;;;;;6273447;28;20041;-84
2021/10/28 23:25:10;;;;;;;87.85;28.98;;;7.80;92.50;;;;;;6299175;28;20056;-83
2021/10/28 23:28:13;;;;;;;162.07;30.75;;;7.90;92.60;;;;;;6301411;28;20123;-84
2021/10/28 23:31:15;;;;;;;115.35;29.33;;;7.90;92.60;;;;;;6299348;28;20044;-84
2021/10/28 23:34:17;;;;;;;117.93;29.25;;;7.90;92.50;;;;;;6300160;28;20670;-83
2021/10/28 23:37:19;;;;;;;164.40;31.77;;;7.90;92.50;;;;;;6302292;28;20049;-85
2021/10/28 23:40:21;;;;;;;151.23;33.80;;;7.80;92.50;;;;;;6300564;28;20046;-85
2021/10/28 23:43:24;;;;;;;107.82;27.50;;;7.90;92.50;;;;;;6300326;28;20521;-85
2021/10/28 23:46:26;;;;;;;182.98;30.80;;;7.80;92.40;;;;;;6299912;28;20045;-85
2021/10/28 23:49:28;;;;;;;119.55;28.58;;;7.80;92.50;;;;;;6299943;28;20429;-85
2021/10/28 23:52:29;;;;;;;134.93;30.95;;;7.80;92.50;;;;;;6299933;28;20049;-84
2021/10/28 23:55:32;;;;;;;120.10;26.85;;;7.70;92.50;;;;;;6301632;28;20044;-85
2021/10/28 23:58:35;;;;;;;115.45;28.55;;;7.70;92.50;;;;;;6300247;28;20052;-86
